createdAt,value
2024-01-27T00:01:30.374Z,11.90
2024-01-27T00:03:58.701Z,13.30
2024-01-27T00:06:27.150Z,11.40
2024-01-27T00:09:04.607Z,12.00
2024-01-27T00:11:35.617Z,13.30
2024-01-27T00:14:04.284Z,13.80
2024-01-27T00:16:32.821Z,11.40
2024-01-27T00:19:01.079Z,11.50
2024-01-27T00:21:31.649Z,11.70
2024-01-27T00:24:04.465Z,9.60
2024-01-27T00:26:33.368Z,6.50
2024-01-27T00:29:01.569Z,6.40
2024-01-27T00:31:30.053Z,11.60
2024-01-27T00:33:58.406Z,11.80
2024-01-27T00:36:30.103Z,8.00
2024-01-27T00:38:58.407Z,6.00
2024-01-27T00:41:26.720Z,9.80
2024-01-27T00:43:54.823Z,15.20
2024-01-27T00:46:23.134Z,13.70
2024-01-27T00:48:54.825Z,12.90
2024-01-27T00:51:23.050Z,11.20
2024-01-27T00:53:51.227Z,10.80
2024-01-27T00:56:19.592Z,18.60
2024-01-27T00:58:47.958Z,13.60
2024-01-27T01:01:16.279Z,13.00
2024-01-27T01:03:50.237Z,16.30
2024-01-27T01:06:24.543Z,16.70
2024-01-27T01:09:11.229Z,16.00
2024-01-27T01:12:29.288Z,14.40
2024-01-27T01:15:17.823Z,14.10
2024-01-27T01:17:52.442Z,15.50
2024-01-27T01:20:23.110Z,15.70
2024-01-27T01:22:51.503Z,13.70
2024-01-27T01:25:22.012Z,14.50
2024-01-27T01:27:55.567Z,14.80
2024-01-27T01:30:26.062Z,12.40
2024-01-27T01:33:01.792Z,12.20
2024-01-27T01:35:35.791Z,10.90
2024-01-27T01:38:11.543Z,10.30
2024-01-27T01:40:39.999Z,9.80
2024-01-27T01:43:14.390Z,9.30
2024-01-27T01:45:42.662Z,8.90
2024-01-27T01:48:11.332Z,9.40
2024-01-27T01:50:42.293Z,10.50
2024-01-27T01:53:13.665Z,10.90
2024-01-27T01:55:44.411Z,9.80
2024-01-27T01:58:12.785Z,12.30
2024-01-27T02:00:41.180Z,10.80
2024-01-27T02:03:13.778Z,10.40
2024-01-27T02:05:42.103Z,11.70
2024-01-27T02:08:10.587Z,12.10
2024-01-27T02:10:39.051Z,13.10
2024-01-27T02:13:20.208Z,12.70
2024-01-27T02:15:50.306Z,12.50
2024-01-27T02:18:19.178Z,13.20
2024-01-27T02:20:48.067Z,13.40
2024-01-27T02:23:19.451Z,12.10
2024-01-27T02:25:47.917Z,11.40
2024-01-27T02:28:16.303Z,12.20
2024-01-27T02:30:46.822Z,13.30
2024-01-27T02:33:15.685Z,12.70
2024-01-27T02:35:46.516Z,10.40
2024-01-27T02:38:28.559Z,9.50
2024-01-27T02:40:57.035Z,9.20
2024-01-27T02:43:25.202Z,9.10
2024-01-27T02:45:56.669Z,9.20
2024-01-27T02:48:24.977Z,8.30
2024-01-27T02:50:53.457Z,8.30
2024-01-27T02:53:21.962Z,8.80
2024-01-27T02:55:50.556Z,8.70
2024-01-27T02:58:29.029Z,7.70
2024-01-27T03:01:17.552Z,8.00
2024-01-27T03:03:51.889Z,9.00
2024-01-27T03:06:20.258Z,8.10
2024-01-27T03:08:48.491Z,6.20
2024-01-27T03:11:17.014Z,7.40
2024-01-27T03:13:46.537Z,8.00
2024-01-27T03:16:15.709Z,7.10
2024-01-27T03:18:46.532Z,6.40
2024-01-27T03:21:26.872Z,6.30
2024-01-27T03:23:57.364Z,6.80
2024-01-27T03:26:26.235Z,6.40
2024-01-27T03:28:54.418Z,6.50
2024-01-27T03:31:22.860Z,6.30
2024-01-27T03:33:51.598Z,7.80
2024-01-27T03:36:20.152Z,7.80
2024-01-27T03:38:48.582Z,10.80
2024-01-27T03:41:16.949Z,10.60
2024-01-27T03:43:45.275Z,11.20
2024-01-27T03:46:18.953Z,13.10
2024-01-27T03:48:47.118Z,12.40
2024-01-27T03:51:18.161Z,13.60
2024-01-27T03:53:48.678Z,12.70
2024-01-27T03:56:16.975Z,12.40
2024-01-27T03:58:45.626Z,13.80
2024-01-27T04:01:13.996Z,14.20
2024-01-27T04:03:42.411Z,14.20
2024-01-27T04:06:10.717Z,14.70
2024-01-27T04:08:39.188Z,14.60
2024-01-27T04:11:19.680Z,14.10
2024-01-27T04:14:28.448Z,12.00
2024-01-27T04:17:11.200Z,12.50
2024-01-27T04:20:19.707Z,10.90
2024-01-27T04:23:17.354Z,10.10
2024-01-27T04:26:13.081Z,8.10
2024-01-27T04:28:44.577Z,8.60
2024-01-27T04:31:13.112Z,9.30
2024-01-27T04:33:41.553Z,9.60
2024-01-27T04:36:10.938Z,10.30
2024-01-27T04:38:39.286Z,10.90
2024-01-27T04:41:07.733Z,8.80
2024-01-27T04:43:48.581Z,10.60
2024-01-27T04:46:16.875Z,9.80
2024-01-27T04:48:45.279Z,11.20
2024-01-27T04:51:13.836Z,8.40
2024-01-27T04:53:42.096Z,9.40
2024-01-27T04:56:10.940Z,11.90
2024-01-27T04:58:39.310Z,9.20
2024-01-27T05:01:10.093Z,10.30
2024-01-27T05:03:38.494Z,9.90
2024-01-27T05:06:12.342Z,8.50
2024-01-27T05:08:40.628Z,8.40
2024-01-27T05:11:11.529Z,7.90
2024-01-27T05:13:42.047Z,7.70
2024-01-27T05:16:15.606Z,10.00
2024-01-27T05:18:49.899Z,10.80
2024-01-27T05:21:18.091Z,10.70
2024-01-27T05:23:57.623Z,11.60
2024-01-27T05:26:31.023Z,10.50
2024-01-27T05:28:59.152Z,10.30
2024-01-27T05:31:27.938Z,10.40
2024-01-27T05:33:56.544Z,10.70
2024-01-27T05:36:25.233Z,12.60
2024-01-27T05:38:53.916Z,12.10
2024-01-27T05:41:27.005Z,11.90
2024-01-27T05:43:55.271Z,11.10
2024-01-27T05:46:23.948Z,10.70
2024-01-27T05:48:55.111Z,9.60
2024-01-27T05:51:26.390Z,9.40
2024-01-27T05:53:54.757Z,10.20
2024-01-27T05:56:23.091Z,11.30
2024-01-27T05:58:54.026Z,12.10
2024-01-27T06:01:22.559Z,11.70
2024-01-27T06:03:51.110Z,11.90
2024-01-27T06:06:19.588Z,12.00
2024-01-27T06:08:48.217Z,12.10
2024-01-27T06:11:23.860Z,12.90
2024-01-27T06:13:52.094Z,13.30
2024-01-27T06:16:24.481Z,12.70
2024-01-27T06:18:53.366Z,11.40
2024-01-27T06:21:21.860Z,13.70
2024-01-27T06:23:50.070Z,13.70
2024-01-27T06:26:18.938Z,15.50
2024-01-27T06:28:47.164Z,12.80
2024-01-27T06:31:20.205Z,12.50
2024-01-27T06:36:36.464Z,10.60
2024-01-27T06:39:30.644Z,11.10
2024-01-27T06:41:58.993Z,9.00
2024-01-27T06:44:27.541Z,7.90
2024-01-27T06:46:55.573Z,9.60
2024-01-27T06:49:26.586Z,8.40
2024-01-27T06:51:55.335Z,9.40
2024-01-27T06:54:23.901Z,7.40
2024-01-27T06:56:52.402Z,8.50
2024-01-27T06:59:23.199Z,6.40
2024-01-27T07:01:56.797Z,5.50
2024-01-27T07:04:25.205Z,5.60
2024-01-27T07:09:47.628Z,4.30
2024-01-27T07:12:18.926Z,2.80
2024-01-27T07:14:47.324Z,2.60
2024-01-27T07:17:24.264Z,3.20
2024-01-27T07:19:56.303Z,3.10
2024-01-27T07:22:30.362Z,2.70
2024-01-27T07:25:22.616Z,3.10
2024-01-27T07:28:04.183Z,2.60
2024-01-27T07:31:14.383Z,2.60
2024-01-27T07:34:28.290Z,3.00
2024-01-27T07:37:15.627Z,2.10
2024-01-27T07:39:46.915Z,3.20
2024-01-27T07:42:25.791Z,8.30
2024-01-27T07:44:54.522Z,3.20
2024-01-27T07:47:22.943Z,3.30
2024-01-27T07:49:55.100Z,3.40
2024-01-27T07:52:23.606Z,3.00
2024-01-27T07:54:55.725Z,3.30
2024-01-27T07:57:24.375Z,4.00
2024-01-27T07:59:52.928Z,3.70
2024-01-27T08:02:27.901Z,3.00
2024-01-27T08:04:59.179Z,3.50
2024-01-27T08:07:35.347Z,2.30
2024-01-27T08:10:06.750Z,3.20
2024-01-27T08:12:38.582Z,3.40
2024-01-27T08:15:10.385Z,2.40
2024-01-27T08:17:38.948Z,3.40
2024-01-27T08:20:09.874Z,3.20
2024-01-27T08:22:38.400Z,2.70
2024-01-27T08:25:19.602Z,3.20
2024-01-27T08:27:47.834Z,3.00
2024-01-27T08:30:16.447Z,3.20
2024-01-27T08:32:44.789Z,2.90
2024-01-27T08:35:16.723Z,3.00
2024-01-27T08:37:47.875Z,4.40
2024-01-27T08:40:16.104Z,4.70
2024-01-27T08:42:44.401Z,3.90
2024-01-27T08:45:15.087Z,4.50
2024-01-27T08:47:43.535Z,2.80
2024-01-27T08:50:12.077Z,3.50
2024-01-27T08:52:40.555Z,2.50
2024-01-27T08:55:09.322Z,3.10
2024-01-27T08:57:47.789Z,3.70
2024-01-27T09:00:17.734Z,3.00
2024-01-27T09:02:48.934Z,3.00
2024-01-27T09:05:17.234Z,3.20
2024-01-27T09:07:45.678Z,2.80
2024-01-27T09:10:16.614Z,2.80
2024-01-27T09:12:45.202Z,2.80
2024-01-27T09:15:13.846Z,2.60
2024-01-27T09:17:44.199Z,3.30
2024-01-27T09:20:12.606Z,3.10
2024-01-27T09:22:46.000Z,2.90
2024-01-27T09:25:17.664Z,2.70
2024-01-27T09:27:45.913Z,2.60
2024-01-27T09:30:14.266Z,3.60
2024-01-27T09:32:54.843Z,4.40
2024-01-27T09:35:23.220Z,2.20
2024-01-27T09:37:51.647Z,2.60
2024-01-27T09:40:20.322Z,2.50
2024-01-27T09:42:55.236Z,1.90
2024-01-27T09:45:33.818Z,2.30
2024-01-27T09:48:02.485Z,2.20
2024-01-27T09:50:34.136Z,2.30
2024-01-27T09:53:10.149Z,3.50
2024-01-27T09:55:44.458Z,3.20
2024-01-27T09:58:12.921Z,3.20
2024-01-27T10:00:41.183Z,2.50
2024-01-27T10:03:09.595Z,3.00
2024-01-27T10:05:38.093Z,3.30
2024-01-27T10:08:09.718Z,2.30
2024-01-27T10:10:37.935Z,2.70
2024-01-27T10:13:07.455Z,2.80
2024-01-27T10:15:35.927Z,2.70
2024-01-27T10:18:08.741Z,2.50
2024-01-27T10:20:37.111Z,2.70
2024-01-27T10:23:12.599Z,3.20
2024-01-27T10:25:42.993Z,2.70
2024-01-27T10:31:19.745Z,2.30
2024-01-27T10:33:54.824Z,4.30
2024-01-27T10:36:31.154Z,2.20
2024-01-27T10:39:02.377Z,2.60
2024-01-27T10:41:36.954Z,2.80
2024-01-27T10:44:06.477Z,2.20
2024-01-27T10:46:34.793Z,2.40
2024-01-27T10:49:17.606Z,2.80
2024-01-27T10:51:58.761Z,3.60
2024-01-27T10:54:28.123Z,1.80
2024-01-27T10:56:58.633Z,2.50
2024-01-27T11:01:57.886Z,1.80
2024-01-27T11:04:27.344Z,2.20
2024-01-27T11:06:56.778Z,2.90
2024-01-27T11:09:25.765Z,2.00
2024-01-27T11:11:54.026Z,1.80
2024-01-27T11:14:22.166Z,1.90
2024-01-27T11:16:55.512Z,2.10
2024-01-27T11:19:24.497Z,1.70
2024-01-27T11:22:06.489Z,2.20
2024-01-27T11:24:36.936Z,1.90
2024-01-27T11:27:06.137Z,3.10
2024-01-27T11:29:35.427Z,2.30
2024-01-27T11:32:07.455Z,1.90
2024-01-27T11:34:43.049Z,1.40
2024-01-27T11:37:12.726Z,1.90
2024-01-27T11:40:00.534Z,2.40
2024-01-27T11:42:35.891Z,2.60
2024-01-27T11:45:46.897Z,1.90
2024-01-27T11:48:47.092Z,2.70
2024-01-27T11:51:26.251Z,3.00
2024-01-27T11:53:58.095Z,2.90
2024-01-27T11:56:27.073Z,2.50
2024-01-27T11:58:55.318Z,1.90
2024-01-27T12:01:23.823Z,1.60
2024-01-27T12:03:54.906Z,1.50
2024-01-27T12:06:23.765Z,1.90
2024-01-27T12:08:54.393Z,1.80
2024-01-27T12:11:25.653Z,2.10
2024-01-27T12:13:54.930Z,1.70
2024-01-27T12:16:26.118Z,2.20
2024-01-27T12:18:57.789Z,2.10
2024-01-27T12:21:26.400Z,1.90
2024-01-27T12:23:59.711Z,2.30
2024-01-27T12:26:29.997Z,1.70
2024-01-27T12:29:01.578Z,2.30
2024-01-27T12:31:31.858Z,2.40
2024-01-27T12:36:33.391Z,1.70
2024-01-27T12:39:02.959Z,1.40
2024-01-27T12:41:31.094Z,2.80
2024-01-27T12:43:59.603Z,2.00
2024-01-27T12:46:28.589Z,1.70
2024-01-27T12:48:59.226Z,2.00
2024-01-27T12:51:29.348Z,2.10
2024-01-27T12:53:57.575Z,2.20
2024-01-27T12:56:25.702Z,2.60
2024-01-27T12:58:53.923Z,3.30
2024-01-27T13:01:24.768Z,2.60
2024-01-27T13:04:13.184Z,4.40
2024-01-27T13:06:58.421Z,4.00
2024-01-27T13:09:30.216Z,3.20
2024-01-27T13:11:58.696Z,2.10
2024-01-27T13:14:26.806Z,1.80
2024-01-27T13:16:55.800Z,1.60
2024-01-27T13:19:24.569Z,1.90
2024-01-27T13:21:53.127Z,1.90
2024-01-27T13:24:24.094Z,1.50
2024-01-27T13:26:54.890Z,2.30
2024-01-27T13:29:24.421Z,1.80
2024-01-27T13:31:55.130Z,1.60
2024-01-27T13:34:28.979Z,2.70
2024-01-27T13:37:18.801Z,4.10
2024-01-27T13:40:17.461Z,6.60
2024-01-27T13:42:50.859Z,3.30
2024-01-27T13:45:22.336Z,2.60
2024-01-27T13:47:52.743Z,3.10
2024-01-27T13:52:49.360Z,3.70
2024-01-27T13:55:17.682Z,2.60
2024-01-27T13:57:48.844Z,2.90
2024-01-27T14:00:17.291Z,3.00
2024-01-27T14:02:47.127Z,3.20
2024-01-27T14:05:16.003Z,2.70
2024-01-27T14:07:44.420Z,3.30
2024-01-27T14:10:21.879Z,2.80
2024-01-27T14:12:50.470Z,2.90
2024-01-27T14:15:22.351Z,2.60
2024-01-27T14:17:51.231Z,2.50
2024-01-27T14:20:24.859Z,2.60
2024-01-27T14:22:53.213Z,2.60
2024-01-27T14:25:21.349Z,3.10
2024-01-27T14:27:49.833Z,2.40
2024-01-27T14:30:21.300Z,2.50
2024-01-27T14:32:49.737Z,3.40
2024-01-27T14:35:19.147Z,2.50
2024-01-27T14:38:09.941Z,2.20
2024-01-27T14:40:41.865Z,5.10
2024-01-27T14:43:13.347Z,7.60
2024-01-27T14:45:47.907Z,3.50
2024-01-27T14:48:17.752Z,2.60
2024-01-27T14:50:47.209Z,3.80
2024-01-27T14:53:15.907Z,3.90
2024-01-27T14:55:44.089Z,3.00
2024-01-27T14:58:12.582Z,2.90
2024-01-27T15:00:43.246Z,3.00
2024-01-27T15:03:13.321Z,4.10
2024-01-27T15:05:44.550Z,3.70
2024-01-27T15:08:13.469Z,3.60
2024-01-27T15:10:41.837Z,4.00
2024-01-27T15:13:18.238Z,3.80
2024-01-27T15:15:49.902Z,2.80
2024-01-27T15:18:20.959Z,4.40
2024-01-27T15:20:59.895Z,4.30
2024-01-27T15:23:29.973Z,5.00
2024-01-27T15:26:02.809Z,4.20
2024-01-27T15:28:31.542Z,4.30
2024-01-27T15:30:59.605Z,4.90
2024-01-27T15:33:27.968Z,4.90
2024-01-27T15:36:10.730Z,4.70
2024-01-27T15:38:38.912Z,3.70
2024-01-27T15:41:09.331Z,5.20
2024-01-27T15:43:40.752Z,4.60
2024-01-27T15:46:09.025Z,5.20
2024-01-27T15:48:38.157Z,4.90
2024-01-27T15:51:06.560Z,5.50
2024-01-27T15:53:34.929Z,5.70
2024-01-27T15:56:03.262Z,5.70
2024-01-27T15:58:31.487Z,5.70
2024-01-27T16:00:59.910Z,6.00
2024-01-27T16:03:28.688Z,6.00
2024-01-27T16:05:57.363Z,4.90
2024-01-27T16:08:28.331Z,5.00
2024-01-27T16:10:56.724Z,4.50
2024-01-27T16:13:27.107Z,5.70
2024-01-27T16:16:21.007Z,4.80
2024-01-27T16:18:51.651Z,4.50
2024-01-27T16:21:20.351Z,5.00
2024-01-27T16:23:48.695Z,3.70
2024-01-27T16:26:17.292Z,3.60
2024-01-27T16:28:57.084Z,3.00
2024-01-27T16:31:25.254Z,2.70
2024-01-27T16:33:56.169Z,2.30
2024-01-27T16:36:45.433Z,2.50
2024-01-27T16:39:16.571Z,2.40
2024-01-27T16:41:46.461Z,2.70
2024-01-27T16:44:17.601Z,2.90
2024-01-27T16:47:01.161Z,2.60
2024-01-27T16:49:32.406Z,2.50
2024-01-27T16:52:00.589Z,3.20
2024-01-27T16:54:30.943Z,3.50
2024-01-27T16:56:59.557Z,2.90
2024-01-27T16:59:32.582Z,3.20
2024-01-27T17:02:00.958Z,3.10
2024-01-27T17:04:31.172Z,2.80
2024-01-27T17:06:59.229Z,2.70
2024-01-27T17:09:27.442Z,2.90
2024-01-27T17:11:55.900Z,3.40
2024-01-27T17:14:24.327Z,3.70
2024-01-27T17:16:52.561Z,4.80
2024-01-27T17:19:20.894Z,3.70
2024-01-27T17:21:49.269Z,3.00
2024-01-27T17:24:17.496Z,2.90
2024-01-27T17:26:45.700Z,2.90
2024-01-27T17:29:13.789Z,3.30
2024-01-27T17:31:42.197Z,3.30
2024-01-27T17:34:10.528Z,3.40
2024-01-27T17:36:39.124Z,4.00
2024-01-27T17:39:10.246Z,5.60
2024-01-27T17:41:38.572Z,5.70
2024-01-27T17:44:06.789Z,4.20
2024-01-27T17:46:34.868Z,4.10
2024-01-27T17:49:04.039Z,3.60
2024-01-27T17:51:33.374Z,3.60
2024-01-27T17:54:08.834Z,3.30
2024-01-27T17:56:37.649Z,4.70
2024-01-27T17:59:05.955Z,4.00
2024-01-27T18:01:34.129Z,4.00
2024-01-27T18:06:33.006Z,3.20
2024-01-27T18:09:01.258Z,3.70
2024-01-27T18:11:29.679Z,3.80
2024-01-27T18:14:00.506Z,3.90
2024-01-27T18:16:31.839Z,3.50
2024-01-27T18:19:00.120Z,3.30
2024-01-27T18:21:31.677Z,4.10
2024-01-27T18:24:00.143Z,4.10
2024-01-27T18:26:31.173Z,5.10
2024-01-27T18:28:59.539Z,4.20
2024-01-27T18:31:27.873Z,3.10
2024-01-27T18:33:56.135Z,3.20
2024-01-27T18:36:24.472Z,3.40
2024-01-27T18:38:52.757Z,3.00
2024-01-27T18:41:20.929Z,3.90
2024-01-27T18:43:49.142Z,3.80
2024-01-27T18:46:18.070Z,2.90
2024-01-27T18:48:50.786Z,3.10
2024-01-27T18:51:26.690Z,3.00
2024-01-27T18:53:55.024Z,4.10
2024-01-27T18:56:23.223Z,3.90
2024-01-27T18:58:51.764Z,4.10
2024-01-27T19:01:20.454Z,3.80
2024-01-27T19:03:48.978Z,4.30
2024-01-27T19:06:19.675Z,2.90
2024-01-27T19:08:51.188Z,2.80
2024-01-27T19:11:19.621Z,3.00
2024-01-27T19:13:47.752Z,3.80
2024-01-27T19:16:15.946Z,3.20
2024-01-27T19:18:44.372Z,3.20
2024-01-27T19:21:22.142Z,3.00
2024-01-27T19:23:50.618Z,2.70
2024-01-27T19:26:18.893Z,2.20
2024-01-27T19:31:33.773Z,2.50
2024-01-27T19:34:25.321Z,2.40
2024-01-27T19:37:16.407Z,2.60
2024-01-27T19:40:24.834Z,2.90
2024-01-27T19:43:13.470Z,3.00
2024-01-27T19:46:06.052Z,2.70
2024-01-27T19:49:34.924Z,2.30
2024-01-27T19:52:08.275Z,2.30
2024-01-27T19:54:36.985Z,2.80
2024-01-27T19:57:05.435Z,2.50
2024-01-27T19:59:36.203Z,2.70
2024-01-27T20:02:08.506Z,2.20
2024-01-27T20:04:36.867Z,2.50
2024-01-27T20:07:05.633Z,2.60
2024-01-27T20:09:34.151Z,2.70
2024-01-27T20:12:02.786Z,2.40
2024-01-27T20:14:30.950Z,2.10
2024-01-27T20:16:59.918Z,3.00
2024-01-27T20:19:28.594Z,2.70
2024-01-27T20:21:57.049Z,2.80
2024-01-27T20:24:28.528Z,3.10
2024-01-27T20:26:56.877Z,3.50
2024-01-27T20:29:25.067Z,3.40
2024-01-27T20:31:57.093Z,4.00
2024-01-27T20:34:25.836Z,4.10
2024-01-27T20:36:57.340Z,2.80
2024-01-27T20:39:25.952Z,3.10
2024-01-27T20:42:00.211Z,2.60
2024-01-27T20:44:30.962Z,3.40
2024-01-27T20:46:59.490Z,3.00
2024-01-27T20:49:28.676Z,3.50
2024-01-27T20:51:57.256Z,2.90
2024-01-27T20:54:25.543Z,2.80
2024-01-27T20:56:57.130Z,3.60
2024-01-27T20:59:28.529Z,3.20
2024-01-27T21:02:03.009Z,2.90
2024-01-27T21:04:31.622Z,3.10
2024-01-27T21:07:02.463Z,2.90
2024-01-27T21:09:30.936Z,2.90
2024-01-27T21:11:59.411Z,2.60
2024-01-27T21:14:29.038Z,2.80
2024-01-27T21:16:59.873Z,5.10
2024-01-27T21:19:28.724Z,3.00
2024-01-27T21:21:57.328Z,3.10
2024-01-27T21:24:33.453Z,4.30
2024-01-27T21:27:01.745Z,3.90
2024-01-27T21:29:33.508Z,3.30
2024-01-27T21:32:05.519Z,4.20
2024-01-27T21:34:39.421Z,4.00
2024-01-27T21:37:28.067Z,4.70
2024-01-27T21:39:56.852Z,4.20
2024-01-27T21:42:25.291Z,4.80
2024-01-27T21:44:55.949Z,4.40
2024-01-27T21:47:26.591Z,4.20
2024-01-27T21:49:55.022Z,3.40
2024-01-27T21:52:26.098Z,3.70
2024-01-27T21:54:54.281Z,3.90
2024-01-27T21:57:22.637Z,3.80
2024-01-27T21:59:52.712Z,4.50
2024-01-27T22:02:23.674Z,4.10
2024-01-27T22:04:52.188Z,4.70
2024-01-27T22:07:29.829Z,4.40
2024-01-27T22:09:59.003Z,2.80
2024-01-27T22:12:27.158Z,3.10
2024-01-27T22:14:57.507Z,3.40
2024-01-27T22:17:25.877Z,3.20
2024-01-27T22:20:00.041Z,3.20
2024-01-27T22:22:28.459Z,3.00
2024-01-27T22:24:56.902Z,3.60
2024-01-27T22:27:25.774Z,3.20
2024-01-27T22:29:54.153Z,3.60
2024-01-27T22:32:25.320Z,3.70
2024-01-27T22:37:22.199Z,2.80
2024-01-27T22:40:30.693Z,2.90
2024-01-27T22:43:19.424Z,3.20
2024-01-27T22:45:57.009Z,3.00
2024-01-27T22:49:15.913Z,3.10
2024-01-27T22:52:16.963Z,2.40
2024-01-27T22:54:45.378Z,2.60
2024-01-27T22:57:16.272Z,2.70
2024-01-27T22:59:44.904Z,3.30
2024-01-27T23:02:14.558Z,2.40
2024-01-27T23:04:43.249Z,3.20
2024-01-27T23:07:11.517Z,3.20
2024-01-27T23:09:39.954Z,2.60
2024-01-27T23:12:08.870Z,2.70
2024-01-27T23:14:38.152Z,2.40
2024-01-27T23:17:06.310Z,2.80
2024-01-27T23:19:34.910Z,2.40
2024-01-27T23:22:03.881Z,2.60
2024-01-27T23:24:34.803Z,2.30
2024-01-27T23:27:03.143Z,2.70
2024-01-27T23:29:33.888Z,2.50
2024-01-27T23:32:02.472Z,2.20
2024-01-27T23:34:30.779Z,2.30
2024-01-27T23:36:58.943Z,2.70
2024-01-27T23:39:27.378Z,2.70
2024-01-27T23:41:55.608Z,2.30
2024-01-27T23:44:23.984Z,2.30
2024-01-27T23:46:52.198Z,2.30
2024-01-27T23:49:20.308Z,2.70
2024-01-27T23:51:48.592Z,2.50
2024-01-27T23:54:16.854Z,2.50
2024-01-27T23:56:46.224Z,2.90
2024-01-27T23:59:14.808Z,2.60
